createdAt,value
2022-11-29T00:00:18.637Z,62.00
2022-11-29T00:10:18.385Z,39.10
2022-11-29T00:20:18.300Z,62.70
2022-11-29T00:30:18.312Z,65.10
2022-11-29T00:40:18.330Z,50.50
2022-11-29T00:50:18.332Z,69.40
2022-11-29T01:00:18.341Z,67.40
2022-11-29T01:10:18.339Z,68.40
2022-11-29T01:20:18.324Z,65.80
2022-11-29T01:30:18.414Z,61.20
2022-11-29T01:40:18.320Z,59.60
2022-11-29T01:50:18.340Z,60.30
2022-11-29T02:00:18.429Z,61.50
2022-11-29T02:10:18.329Z,61.20
2022-11-29T02:20:18.339Z,57.40
2022-11-29T02:30:18.342Z,55.60
2022-11-29T02:40:18.339Z,48.70
2022-11-29T02:50:18.369Z,56.70
2022-11-29T03:00:18.365Z,47.50
2022-11-29T03:10:18.358Z,45.00
2022-11-29T03:20:18.380Z,41.10
2022-11-29T03:30:18.345Z,45.90
2022-11-29T03:40:18.361Z,50.20
2022-11-29T03:50:18.365Z,49.50
2022-11-29T04:00:18.380Z,56.20
2022-11-29T04:10:18.392Z,45.40
2022-11-29T04:20:18.365Z,47.60
2022-11-29T04:30:18.406Z,43.10
2022-11-29T04:40:18.405Z,50.00
2022-11-29T04:50:18.421Z,49.60
2022-11-29T05:00:18.389Z,53.90
2022-11-29T05:10:18.381Z,52.90
2022-11-29T05:20:18.415Z,53.60
2022-11-29T05:30:18.423Z,54.30
2022-11-29T05:40:18.502Z,40.80
2022-11-29T05:50:18.408Z,49.30
2022-11-29T06:10:18.417Z,50.50
2022-11-29T06:20:18.426Z,53.20
2022-11-29T06:30:18.537Z,55.10
2022-11-29T06:40:18.413Z,53.40
2022-11-29T06:50:18.475Z,50.30
2022-11-29T07:00:18.486Z,49.70
2022-11-29T07:10:18.451Z,52.40
2022-11-29T07:20:18.455Z,50.60
2022-11-29T07:30:18.434Z,51.20
2022-11-29T07:40:18.485Z,34.80
2022-11-29T07:50:18.433Z,45.90
2022-11-29T08:00:18.438Z,52.20
2022-11-29T08:10:18.524Z,42.90
2022-11-29T08:20:18.522Z,54.40
2022-11-29T08:30:18.490Z,58.20
2022-11-29T08:40:18.494Z,52.70
2022-11-29T08:50:18.485Z,50.50
2022-11-29T09:00:18.467Z,52.90
2022-11-29T09:10:18.486Z,54.20
2022-11-29T09:20:18.482Z,52.20
2022-11-29T09:30:23.517Z,51.30
2022-11-29T09:40:18.494Z,51.00
2022-11-29T09:50:18.474Z,55.20
2022-11-29T10:00:18.497Z,48.10
2022-11-29T10:10:18.624Z,54.20
2022-11-29T10:20:18.734Z,57.10
2022-11-29T10:30:18.637Z,55.60
2022-11-29T10:40:18.510Z,31.40
2022-11-29T10:50:18.532Z,32.10
2022-11-29T11:00:18.532Z,55.80
2022-11-29T11:10:18.505Z,59.60
2022-11-29T11:20:18.506Z,53.60
2022-11-29T11:30:18.542Z,59.50
2022-11-29T11:40:18.654Z,58.20
2022-11-29T11:50:18.538Z,59.80
2022-11-29T12:00:29.511Z,52.60
2022-11-29T12:10:18.535Z,52.00
2022-11-29T12:20:18.606Z,56.30
2022-11-29T12:30:18.524Z,67.10
2022-11-29T12:40:18.536Z,65.20
2022-11-29T12:50:18.542Z,62.40
2022-11-29T13:00:18.532Z,60.20
2022-11-29T13:10:18.883Z,58.30
2022-11-29T13:20:18.597Z,62.90
2022-11-29T13:30:18.550Z,65.20
2022-11-29T13:40:18.541Z,62.10
2022-11-29T13:50:18.654Z,62.50
2022-11-29T14:00:18.585Z,62.40
2022-11-29T14:10:28.429Z,59.60
2022-11-29T14:20:18.587Z,62.30
2022-11-29T14:30:18.594Z,64.40
2022-11-29T14:40:18.592Z,66.10
2022-11-29T14:50:18.577Z,64.40
2022-11-29T15:00:18.611Z,66.70
2022-11-29T15:10:18.580Z,58.00
2022-11-29T15:20:18.611Z,67.60
2022-11-29T15:30:18.615Z,75.70
2022-11-29T15:40:18.613Z,65.50
2022-11-29T15:50:18.779Z,65.60
2022-11-29T16:00:18.667Z,77.80
2022-11-29T16:10:18.714Z,77.80
2022-11-29T16:20:18.710Z,78.70
2022-11-29T16:30:18.621Z,66.90
2022-11-29T16:40:18.649Z,77.40
2022-11-29T16:50:18.633Z,77.50
2022-11-29T17:00:18.643Z,74.20
2022-11-29T17:10:18.661Z,84.90
2022-11-29T17:20:18.639Z,76.40
2022-11-29T17:30:18.657Z,82.30
2022-11-29T17:40:18.699Z,83.20
2022-11-29T17:50:18.651Z,73.90
2022-11-29T18:00:18.637Z,86.60
2022-11-29T18:10:18.667Z,90.30
2022-11-29T18:20:18.647Z,91.20
2022-11-29T18:30:18.656Z,85.20
2022-11-29T18:40:18.664Z,80.00
2022-11-29T18:50:18.684Z,92.50
2022-11-29T19:00:18.661Z,77.90
2022-11-29T19:10:18.658Z,85.90
2022-11-29T19:20:18.664Z,84.10
2022-11-29T19:30:18.663Z,82.70
2022-11-29T19:40:18.697Z,91.20
2022-11-29T19:50:18.741Z,101.40
2022-11-29T20:00:18.733Z,91.50
2022-11-29T20:10:18.730Z,93.60
2022-11-29T20:20:18.779Z,93.70
2022-11-29T20:30:18.784Z,92.40
2022-11-29T20:40:18.712Z,89.10
2022-11-29T20:50:23.110Z,51.40
2022-11-29T21:00:18.711Z,85.10
2022-11-29T21:10:18.785Z,93.60
2022-11-29T21:20:18.803Z,106.60
2022-11-29T21:30:18.741Z,108.60
2022-11-29T21:40:18.709Z,80.20
2022-11-29T21:50:18.707Z,91.40
2022-11-29T22:00:18.751Z,102.30
2022-11-29T22:10:18.739Z,104.40
2022-11-29T22:20:18.737Z,94.10
2022-11-29T22:30:18.748Z,103.20
2022-11-29T22:40:18.753Z,101.60
2022-11-29T23:00:18.759Z,96.10
2022-11-29T23:10:18.756Z,101.20
2022-11-29T23:20:18.812Z,96.80
2022-11-29T23:30:18.763Z,110.70
2022-11-29T23:40:18.776Z,117.10
2022-11-29T23:50:18.764Z,66.00
